Accueil
METAR-TAF:

METAR-TAF

Aéroports :

Clinton, Caroline du Nord, États-Unis

latitude: 34-58-32N, longitude: 078-21-53W, altitude: 45 m

Observation

Le bulletin a été fait il y a 1 heure et 22 minutes, à 14:55 UTC
Vent 6 kt de nord/nord-est
Température 5°C
Humidité 70%
Pression 1030 hPa
Visibilité: 16.1 km
Ciel clair

METAR: KCTZ 141455Z AUTO 03006KT 10SM CLR 05/00 A3042 RMK AO2 T00511005

Heure: 11:17 (16:17 UTC)


TAF: absent

Observations et prévisions météorologiques de plus de 4000 aéroports (messages METAR et TAF).

Les stations disponibles sont représentées par des disques jaunes et rouges sur la carte.

Passer la souris dessus pour voir le nom de la station.

Cliquer dessus pour voir les observations et prévisions météorologiques.

Pour changer de carte: cliquez sur les boutons verts avec une croix noire pour zoomer, sur le bouton vert avec un tiret pour effectuer un zoom arrière, ou sur les flèches vertes pour les cartes adjacentes.


METAR-TAF: